sensor_id;sensor_type;location;lat;lon;timestamp;temperature;humidity
29663;DHT22;16578;53.266;7.920;2024-03-02T00:01:05;10.80;74.30
29663;DHT22;16578;53.266;7.920;2024-03-02T00:03:31;10.70;74.30
29663;DHT22;16578;53.266;7.920;2024-03-02T00:05:57;10.70;74.20
29663;DHT22;16578;53.266;7.920;2024-03-02T00:08:24;10.70;74.30
29663;DHT22;16578;53.266;7.920;2024-03-02T00:10:51;10.70;74.20
29663;DHT22;16578;53.266;7.920;2024-03-02T00:13:20;10.70;74.30
29663;DHT22;16578;53.266;7.920;2024-03-02T00:15:54;10.70;74.30
29663;DHT22;16578;53.266;7.920;2024-03-02T00:18:40;10.70;74.30
29663;DHT22;16578;53.266;7.920;2024-03-02T00:21:07;10.60;74.30
29663;DHT22;16578;53.266;7.920;2024-03-02T00:23:35;10.60;74.30
29663;DHT22;16578;53.266;7.920;2024-03-02T00:26:01;10.60;74.30
29663;DHT22;16578;53.266;7.920;2024-03-02T00:28:35;10.50;74.30
29663;DHT22;16578;53.266;7.920;2024-03-02T00:31:09;10.50;74.40
29663;DHT22;16578;53.266;7.920;2024-03-02T00:33:40;10.50;74.40
29663;DHT22;16578;53.266;7.920;2024-03-02T00:36:06;10.50;74.40
29663;DHT22;16578;53.266;7.920;2024-03-02T00:38:33;10.50;74.40
29663;DHT22;16578;53.266;7.920;2024-03-02T00:41:03;10.50;74.40
29663;DHT22;16578;53.266;7.920;2024-03-02T00:43:43;10.40;74.30
29663;DHT22;16578;53.266;7.920;2024-03-02T00:46:17;10.40;74.40
29663;DHT22;16578;53.266;7.920;2024-03-02T00:49:04;10.40;74.50
29663;DHT22;16578;53.266;7.920;2024-03-02T00:51:32;10.30;74.40
29663;DHT22;16578;53.266;7.920;2024-03-02T00:54:01;10.30;74.50
29663;DHT22;16578;53.266;7.920;2024-03-02T00:56:30;10.30;74.50
29663;DHT22;16578;53.266;7.920;2024-03-02T00:58:56;10.30;74.50
29663;DHT22;16578;53.266;7.920;2024-03-02T01:01:22;10.30;74.50
29663;DHT22;16578;53.266;7.920;2024-03-02T01:03:48;10.30;74.60
29663;DHT22;16578;53.266;7.920;2024-03-02T01:06:14;10.30;74.60
29663;DHT22;16578;53.266;7.920;2024-03-02T01:08:41;10.30;74.60
29663;DHT22;16578;53.266;7.920;2024-03-02T01:11:07;10.30;74.60
29663;DHT22;16578;53.266;7.920;2024-03-02T01:13:32;10.30;74.70
29663;DHT22;16578;53.266;7.920;2024-03-02T01:15:58;10.30;74.60
29663;DHT22;16578;53.266;7.920;2024-03-02T01:18:24;10.20;74.50
29663;DHT22;16578;53.266;7.920;2024-03-02T01:20:50;10.30;74.60
29663;DHT22;16578;53.266;7.920;2024-03-02T01:23:20;10.30;74.50
29663;DHT22;16578;53.266;7.920;2024-03-02T01:25:50;10.20;74.60
29663;DHT22;16578;53.266;7.920;2024-03-02T01:28:16;10.20;74.50
29663;DHT22;16578;53.266;7.920;2024-03-02T01:30:42;10.20;74.50
29663;DHT22;16578;53.266;7.920;2024-03-02T01:33:07;10.20;74.50
29663;DHT22;16578;53.266;7.920;2024-03-02T01:35:33;10.20;74.50
29663;DHT22;16578;53.266;7.920;2024-03-02T01:38:00;10.20;74.50
29663;DHT22;16578;53.266;7.920;2024-03-02T01:40:26;10.20;74.40
29663;DHT22;16578;53.266;7.920;2024-03-02T01:42:52;10.20;74.40
29663;DHT22;16578;53.266;7.920;2024-03-02T01:45:19;10.20;74.40
29663;DHT22;16578;53.266;7.920;2024-03-02T01:47:45;10.20;74.40
29663;DHT22;16578;53.266;7.920;2024-03-02T01:50:11;10.20;74.40
29663;DHT22;16578;53.266;7.920;2024-03-02T01:52:37;10.20;74.40
29663;DHT22;16578;53.266;7.920;2024-03-02T01:55:03;10.20;74.40
29663;DHT22;16578;53.266;7.920;2024-03-02T01:57:29;10.20;74.40
29663;DHT22;16578;53.266;7.920;2024-03-02T01:59:56;10.20;74.30
29663;DHT22;16578;53.266;7.920;2024-03-02T02:02:22;10.20;74.30
29663;DHT22;16578;53.266;7.920;2024-03-02T02:04:47;10.20;74.30
29663;DHT22;16578;53.266;7.920;2024-03-02T02:07:13;10.20;74.20
29663;DHT22;16578;53.266;7.920;2024-03-02T02:09:43;10.20;74.20
29663;DHT22;16578;53.266;7.920;2024-03-02T02:12:12;10.10;74.10
29663;DHT22;16578;53.266;7.920;2024-03-02T02:14:37;10.10;74.10
29663;DHT22;16578;53.266;7.920;2024-03-02T02:17:05;10.10;74.10
29663;DHT22;16578;53.266;7.920;2024-03-02T02:19:30;10.10;74.10
29663;DHT22;16578;53.266;7.920;2024-03-02T02:21:56;10.10;74.10
29663;DHT22;16578;53.266;7.920;2024-03-02T02:24:22;10.10;74.10
29663;DHT22;16578;53.266;7.920;2024-03-02T02:26:47;10.10;74.10
29663;DHT22;16578;53.266;7.920;2024-03-02T02:29:13;10.10;74.10
29663;DHT22;16578;53.266;7.920;2024-03-02T02:31:42;10.10;74.10
29663;DHT22;16578;53.266;7.920;2024-03-02T02:34:08;10.10;74.10
29663;DHT22;16578;53.266;7.920;2024-03-02T02:36:37;10.10;74.10
29663;DHT22;16578;53.266;7.920;2024-03-02T02:39:04;10.10;74.10
29663;DHT22;16578;53.266;7.920;2024-03-02T02:41:30;10.00;74.00
29663;DHT22;16578;53.266;7.920;2024-03-02T02:43:56;10.00;74.00
29663;DHT22;16578;53.266;7.920;2024-03-02T02:46:22;10.00;74.00
29663;DHT22;16578;53.266;7.920;2024-03-02T02:48:47;10.00;74.10
29663;DHT22;16578;53.266;7.920;2024-03-02T02:51:13;10.00;74.10
29663;DHT22;16578;53.266;7.920;2024-03-02T02:53:39;9.90;74.10
29663;DHT22;16578;53.266;7.920;2024-03-02T02:56:07;9.90;74.20
29663;DHT22;16578;53.266;7.920;2024-03-02T02:58:33;9.90;74.20
29663;DHT22;16578;53.266;7.920;2024-03-02T03:00:58;9.90;74.30
29663;DHT22;16578;53.266;7.920;2024-03-02T03:03:24;9.90;74.40
29663;DHT22;16578;53.266;7.920;2024-03-02T03:05:50;9.80;74.40
29663;DHT22;16578;53.266;7.920;2024-03-02T03:08:15;9.80;74.40
29663;DHT22;16578;53.266;7.920;2024-03-02T03:10:41;9.80;74.50
29663;DHT22;16578;53.266;7.920;2024-03-02T03:13:08;9.80;74.50
29663;DHT22;16578;53.266;7.920;2024-03-02T03:15:37;9.80;74.50
29663;DHT22;16578;53.266;7.920;2024-03-02T03:18:03;9.80;74.60
29663;DHT22;16578;53.266;7.920;2024-03-02T03:20:30;9.80;74.60
29663;DHT22;16578;53.266;7.920;2024-03-02T03:22:56;9.80;74.60
29663;DHT22;16578;53.266;7.920;2024-03-02T03:25:22;9.80;74.60
29663;DHT22;16578;53.266;7.920;2024-03-02T03:27:48;9.80;74.70
29663;DHT22;16578;53.266;7.920;2024-03-02T03:30:13;9.80;74.70
29663;DHT22;16578;53.266;7.920;2024-03-02T03:32:39;9.80;74.80
29663;DHT22;16578;53.266;7.920;2024-03-02T03:35:06;9.80;74.80
29663;DHT22;16578;53.266;7.920;2024-03-02T03:37:32;9.80;74.90
29663;DHT22;16578;53.266;7.920;2024-03-02T03:40:00;9.80;74.80
29663;DHT22;16578;53.266;7.920;2024-03-02T03:42:26;9.70;74.90
29663;DHT22;16578;53.266;7.920;2024-03-02T03:44:52;9.70;74.70
29663;DHT22;16578;53.266;7.920;2024-03-02T03:47:18;9.80;74.70
29663;DHT22;16578;53.266;7.920;2024-03-02T03:49:43;9.70;74.70
29663;DHT22;16578;53.266;7.920;2024-03-02T03:52:09;9.70;74.70
29663;DHT22;16578;53.266;7.920;2024-03-02T03:54:35;9.70;74.70
29663;DHT22;16578;53.266;7.920;2024-03-02T03:57:02;9.70;74.70
29663;DHT22;16578;53.266;7.920;2024-03-02T03:59:28;9.70;74.70
29663;DHT22;16578;53.266;7.920;2024-03-02T04:01:53;9.70;74.80
29663;DHT22;16578;53.266;7.920;2024-03-02T04:04:19;9.70;74.80
29663;DHT22;16578;53.266;7.920;2024-03-02T04:06:44;9.70;74.90
29663;DHT22;16578;53.266;7.920;2024-03-02T04:09:10;9.70;74.90
29663;DHT22;16578;53.266;7.920;2024-03-02T04:11:36;9.70;74.90
29663;DHT22;16578;53.266;7.920;2024-03-02T04:14:01;9.60;74.90
29663;DHT22;16578;53.266;7.920;2024-03-02T04:16:27;9.60;74.90
29663;DHT22;16578;53.266;7.920;2024-03-02T04:18:54;9.60;75.00
29663;DHT22;16578;53.266;7.920;2024-03-02T04:21:20;9.60;75.00
29663;DHT22;16578;53.266;7.920;2024-03-02T04:23:45;9.60;75.00
29663;DHT22;16578;53.266;7.920;2024-03-02T04:26:11;9.60;75.00
29663;DHT22;16578;53.266;7.920;2024-03-02T04:28:36;9.60;75.00
29663;DHT22;16578;53.266;7.920;2024-03-02T04:31:02;9.60;75.00
29663;DHT22;16578;53.266;7.920;2024-03-02T04:33:28;9.60;75.10
29663;DHT22;16578;53.266;7.920;2024-03-02T04:35:53;9.60;75.10
29663;DHT22;16578;53.266;7.920;2024-03-02T04:38:19;9.60;76.00
29663;DHT22;16578;53.266;7.920;2024-03-02T04:40:44;9.60;75.10
29663;DHT22;16578;53.266;7.920;2024-03-02T04:43:10;9.60;75.20
29663;DHT22;16578;53.266;7.920;2024-03-02T04:45:38;9.50;75.10
29663;DHT22;16578;53.266;7.920;2024-03-02T04:48:04;9.60;75.20
29663;DHT22;16578;53.266;7.920;2024-03-02T04:50:29;9.50;75.20
29663;DHT22;16578;53.266;7.920;2024-03-02T04:52:55;9.50;75.20
29663;DHT22;16578;53.266;7.920;2024-03-02T04:55:21;9.50;75.30
29663;DHT22;16578;53.266;7.920;2024-03-02T04:58:04;9.50;75.30
29663;DHT22;16578;53.266;7.920;2024-03-02T05:00:30;9.50;75.30
29663;DHT22;16578;53.266;7.920;2024-03-02T05:02:56;9.50;75.30
29663;DHT22;16578;53.266;7.920;2024-03-02T05:05:22;9.50;75.30
29663;DHT22;16578;53.266;7.920;2024-03-02T05:07:47;9.50;75.40
29663;DHT22;16578;53.266;7.920;2024-03-02T05:10:13;9.40;75.40
29663;DHT22;16578;53.266;7.920;2024-03-02T05:12:39;9.40;75.40
29663;DHT22;16578;53.266;7.920;2024-03-02T05:15:08;9.40;75.40
29663;DHT22;16578;53.266;7.920;2024-03-02T05:17:35;9.40;75.50
29663;DHT22;16578;53.266;7.920;2024-03-02T05:20:02;9.40;75.50
29663;DHT22;16578;53.266;7.920;2024-03-02T05:22:27;9.40;75.60
29663;DHT22;16578;53.266;7.920;2024-03-02T05:24:53;9.40;75.80
29663;DHT22;16578;53.266;7.920;2024-03-02T05:27:18;9.40;75.70
29663;DHT22;16578;53.266;7.920;2024-03-02T05:29:44;9.40;75.80
29663;DHT22;16578;53.266;7.920;2024-03-02T05:32:09;9.30;75.70
29663;DHT22;16578;53.266;7.920;2024-03-02T05:34:35;9.40;75.80
29663;DHT22;16578;53.266;7.920;2024-03-02T05:37:01;9.40;75.80
29663;DHT22;16578;53.266;7.920;2024-03-02T05:39:27;9.30;75.80
29663;DHT22;16578;53.266;7.920;2024-03-02T05:41:52;9.30;75.90
29663;DHT22;16578;53.266;7.920;2024-03-02T05:44:18;9.30;75.90
29663;DHT22;16578;53.266;7.920;2024-03-02T05:46:45;9.30;76.00
29663;DHT22;16578;53.266;7.920;2024-03-02T05:49:11;9.30;76.00
29663;DHT22;16578;53.266;7.920;2024-03-02T05:51:36;9.30;76.10
29663;DHT22;16578;53.266;7.920;2024-03-02T05:54:02;9.30;76.10
29663;DHT22;16578;53.266;7.920;2024-03-02T05:56:28;9.30;76.20
29663;DHT22;16578;53.266;7.920;2024-03-02T05:58:53;9.20;76.20
29663;DHT22;16578;53.266;7.920;2024-03-02T06:01:19;9.20;76.20
29663;DHT22;16578;53.266;7.920;2024-03-02T06:03:45;9.30;76.30
29663;DHT22;16578;53.266;7.920;2024-03-02T06:06:10;9.20;76.20
29663;DHT22;16578;53.266;7.920;2024-03-02T06:08:36;9.20;76.30
29663;DHT22;16578;53.266;7.920;2024-03-02T06:11:02;9.20;76.30
29663;DHT22;16578;53.266;7.920;2024-03-02T06:13:27;9.20;76.30
29663;DHT22;16578;53.266;7.920;2024-03-02T06:15:53;9.20;76.30
29663;DHT22;16578;53.266;7.920;2024-03-02T06:18:19;9.20;76.40
29663;DHT22;16578;53.266;7.920;2024-03-02T06:20:44;9.20;76.40
29663;DHT22;16578;53.266;7.920;2024-03-02T06:23:10;9.20;76.40
29663;DHT22;16578;53.266;7.920;2024-03-02T06:25:35;9.20;76.40
29663;DHT22;16578;53.266;7.920;2024-03-02T06:28:01;9.20;76.40
29663;DHT22;16578;53.266;7.920;2024-03-02T06:30:26;9.20;76.40
29663;DHT22;16578;53.266;7.920;2024-03-02T06:32:52;9.20;76.50
29663;DHT22;16578;53.266;7.920;2024-03-02T06:35:18;9.20;76.60
29663;DHT22;16578;53.266;7.920;2024-03-02T06:37:43;9.20;76.60
29663;DHT22;16578;53.266;7.920;2024-03-02T06:40:09;9.20;76.60
29663;DHT22;16578;53.266;7.920;2024-03-02T06:42:35;9.20;76.60
29663;DHT22;16578;53.266;7.920;2024-03-02T06:45:01;9.20;76.70
29663;DHT22;16578;53.266;7.920;2024-03-02T06:47:27;9.20;76.80
29663;DHT22;16578;53.266;7.920;2024-03-02T06:49:53;9.10;76.60
29663;DHT22;16578;53.266;7.920;2024-03-02T06:52:19;9.20;76.80
29663;DHT22;16578;53.266;7.920;2024-03-02T06:54:46;9.20;76.80
29663;DHT22;16578;53.266;7.920;2024-03-02T06:57:11;9.20;76.80
29663;DHT22;16578;53.266;7.920;2024-03-02T06:59:37;9.10;76.70
29663;DHT22;16578;53.266;7.920;2024-03-02T07:02:03;9.10;76.80
29663;DHT22;16578;53.266;7.920;2024-03-02T07:04:28;9.10;76.80
29663;DHT22;16578;53.266;7.920;2024-03-02T07:06:54;9.20;77.00
29663;DHT22;16578;53.266;7.920;2024-03-02T07:09:20;9.10;76.90
29663;DHT22;16578;53.266;7.920;2024-03-02T07:11:48;9.20;77.10
29663;DHT22;16578;53.266;7.920;2024-03-02T07:14:14;9.20;77.10
29663;DHT22;16578;53.266;7.920;2024-03-02T07:16:40;9.20;77.20
29663;DHT22;16578;53.266;7.920;2024-03-02T07:19:06;9.20;77.20
29663;DHT22;16578;53.266;7.920;2024-03-02T07:21:32;9.20;77.30
29663;DHT22;16578;53.266;7.920;2024-03-02T07:23:58;9.20;77.30
29663;DHT22;16578;53.266;7.920;2024-03-02T07:26:25;9.20;77.40
29663;DHT22;16578;53.266;7.920;2024-03-02T07:28:50;9.20;77.40
29663;DHT22;16578;53.266;7.920;2024-03-02T07:31:16;9.20;77.50
29663;DHT22;16578;53.266;7.920;2024-03-02T07:33:44;9.30;77.50
29663;DHT22;16578;53.266;7.920;2024-03-02T07:36:10;9.30;77.70
29663;DHT22;16578;53.266;7.920;2024-03-02T07:38:36;9.30;77.70
29663;DHT22;16578;53.266;7.920;2024-03-02T07:41:02;9.40;77.80
29663;DHT22;16578;53.266;7.920;2024-03-02T07:43:28;9.50;77.90
29663;DHT22;16578;53.266;7.920;2024-03-02T07:45:53;9.50;77.90
29663;DHT22;16578;53.266;7.920;2024-03-02T07:48:19;9.50;77.90
29663;DHT22;16578;53.266;7.920;2024-03-02T07:50:45;9.60;77.90
29663;DHT22;16578;53.266;7.920;2024-03-02T07:53:10;9.70;77.90
29663;DHT22;16578;53.266;7.920;2024-03-02T07:55:36;9.70;77.80
29663;DHT22;16578;53.266;7.920;2024-03-02T07:58:02;9.90;77.90
29663;DHT22;16578;53.266;7.920;2024-03-02T08:00:28;9.90;77.80
29663;DHT22;16578;53.266;7.920;2024-03-02T08:02:54;10.00;77.80
29663;DHT22;16578;53.266;7.920;2024-03-02T08:05:20;10.10;77.70
29663;DHT22;16578;53.266;7.920;2024-03-02T08:07:46;10.10;77.60
29663;DHT22;16578;53.266;7.920;2024-03-02T08:10:12;10.20;77.60
29663;DHT22;16578;53.266;7.920;2024-03-02T08:12:37;10.30;77.60
29663;DHT22;16578;53.266;7.920;2024-03-02T08:15:03;10.40;77.50
29663;DHT22;16578;53.266;7.920;2024-03-02T08:17:30;10.40;77.40
29663;DHT22;16578;53.266;7.920;2024-03-02T08:19:56;10.50;77.20
29663;DHT22;16578;53.266;7.920;2024-03-02T08:22:22;10.60;77.10
29663;DHT22;16578;53.266;7.920;2024-03-02T08:24:48;10.70;77.10
29663;DHT22;16578;53.266;7.920;2024-03-02T08:27:13;10.80;77.00
29663;DHT22;16578;53.266;7.920;2024-03-02T08:29:40;10.90;77.00
29663;DHT22;16578;53.266;7.920;2024-03-02T08:32:06;11.00;76.90
29663;DHT22;16578;53.266;7.920;2024-03-02T08:34:32;11.10;76.80
29663;DHT22;16578;53.266;7.920;2024-03-02T08:37:01;11.10;76.60
29663;DHT22;16578;53.266;7.920;2024-03-02T08:39:27;11.20;76.50
29663;DHT22;16578;53.266;7.920;2024-03-02T08:41:52;11.30;76.30
29663;DHT22;16578;53.266;7.920;2024-03-02T08:44:18;11.40;76.10
29663;DHT22;16578;53.266;7.920;2024-03-02T08:46:44;11.50;76.00
29663;DHT22;16578;53.266;7.920;2024-03-02T08:49:10;11.60;76.00
29663;DHT22;16578;53.266;7.920;2024-03-02T08:51:36;11.70;75.80
29663;DHT22;16578;53.266;7.920;2024-03-02T08:54:01;11.80;75.60
29663;DHT22;16578;53.266;7.920;2024-03-02T08:56:27;11.90;75.50
29663;DHT22;16578;53.266;7.920;2024-03-02T08:58:53;12.00;75.50
29663;DHT22;16578;53.266;7.920;2024-03-02T09:01:18;12.10;75.30
29663;DHT22;16578;53.266;7.920;2024-03-02T09:03:47;12.10;75.00
29663;DHT22;16578;53.266;7.920;2024-03-02T09:06:14;12.20;74.80
29663;DHT22;16578;53.266;7.920;2024-03-02T09:08:42;12.30;74.70
29663;DHT22;16578;53.266;7.920;2024-03-02T09:11:09;12.40;74.70
29663;DHT22;16578;53.266;7.920;2024-03-02T09:13:35;12.50;74.50
29663;DHT22;16578;53.266;7.920;2024-03-02T09:16:01;12.50;74.20
29663;DHT22;16578;53.266;7.920;2024-03-02T09:18:28;12.60;74.20
29663;DHT22;16578;53.266;7.920;2024-03-02T09:20:53;12.60;74.00
29663;DHT22;16578;53.266;7.920;2024-03-02T09:23:19;12.70;73.80
29663;DHT22;16578;53.266;7.920;2024-03-02T09:25:44;12.80;73.80
29663;DHT22;16578;53.266;7.920;2024-03-02T09:28:10;12.80;73.50
29663;DHT22;16578;53.266;7.920;2024-03-02T09:30:36;12.90;73.40
29663;DHT22;16578;53.266;7.920;2024-03-02T09:33:01;13.00;73.30
29663;DHT22;16578;53.266;7.920;2024-03-02T09:35:27;13.00;73.10
29663;DHT22;16578;53.266;7.920;2024-03-02T09:37:53;13.10;72.80
29663;DHT22;16578;53.266;7.920;2024-03-02T09:40:21;13.10;72.50
29663;DHT22;16578;53.266;7.920;2024-03-02T09:42:48;13.20;72.30
29663;DHT22;16578;53.266;7.920;2024-03-02T09:45:22;13.20;72.20
29663;DHT22;16578;53.266;7.920;2024-03-02T09:47:49;13.30;72.20
29663;DHT22;16578;53.266;7.920;2024-03-02T09:50:14;13.30;72.10
29663;DHT22;16578;53.266;7.920;2024-03-02T09:52:48;13.40;72.00
29663;DHT22;16578;53.266;7.920;2024-03-02T09:55:13;13.40;71.90
29663;DHT22;16578;53.266;7.920;2024-03-02T09:57:41;13.50;71.90
29663;DHT22;16578;53.266;7.920;2024-03-02T10:00:08;13.50;71.60
29663;DHT22;16578;53.266;7.920;2024-03-02T10:02:34;13.60;71.70
29663;DHT22;16578;53.266;7.920;2024-03-02T10:04:59;13.60;71.50
29663;DHT22;16578;53.266;7.920;2024-03-02T10:07:25;13.60;71.50
29663;DHT22;16578;53.266;7.920;2024-03-02T10:09:54;13.70;71.40
29663;DHT22;16578;53.266;7.920;2024-03-02T10:12:20;13.70;71.10
29663;DHT22;16578;53.266;7.920;2024-03-02T10:14:46;13.80;71.00
29663;DHT22;16578;53.266;7.920;2024-03-02T10:17:14;13.80;70.80
29663;DHT22;16578;53.266;7.920;2024-03-02T10:19:41;13.80;70.70
29663;DHT22;16578;53.266;7.920;2024-03-02T10:22:08;13.90;70.50
29663;DHT22;16578;53.266;7.920;2024-03-02T10:24:41;13.90;70.40
29663;DHT22;16578;53.266;7.920;2024-03-02T10:27:17;14.00;70.10
29663;DHT22;16578;53.266;7.920;2024-03-02T10:29:46;14.00;70.00
29663;DHT22;16578;53.266;7.920;2024-03-02T10:32:12;14.10;69.90
29663;DHT22;16578;53.266;7.920;2024-03-02T10:34:45;14.10;70.00
29663;DHT22;16578;53.266;7.920;2024-03-02T10:37:11;14.10;69.70
29663;DHT22;16578;53.266;7.920;2024-03-02T10:39:37;14.10;69.60
29663;DHT22;16578;53.266;7.920;2024-03-02T10:42:07;14.10;69.50
29663;DHT22;16578;53.266;7.920;2024-03-02T10:44:33;14.10;69.50
29663;DHT22;16578;53.266;7.920;2024-03-02T10:47:04;14.20;69.50
29663;DHT22;16578;53.266;7.920;2024-03-02T10:49:31;14.20;69.20
29663;DHT22;16578;53.266;7.920;2024-03-02T10:52:00;14.30;69.10
29663;DHT22;16578;53.266;7.920;2024-03-02T10:54:26;14.30;69.10
29663;DHT22;16578;53.266;7.920;2024-03-02T10:56:56;14.30;69.00
29663;DHT22;16578;53.266;7.920;2024-03-02T10:59:33;14.30;68.70
29663;DHT22;16578;53.266;7.920;2024-03-02T11:02:01;14.40;68.40
29663;DHT22;16578;53.266;7.920;2024-03-02T11:04:29;14.40;68.40
29663;DHT22;16578;53.266;7.920;2024-03-02T11:07:06;14.40;68.60
29663;DHT22;16578;53.266;7.920;2024-03-02T11:09:34;14.40;68.40
29663;DHT22;16578;53.266;7.920;2024-03-02T11:12:03;14.40;68.30
29663;DHT22;16578;53.266;7.920;2024-03-02T11:14:32;14.50;68.10
29663;DHT22;16578;53.266;7.920;2024-03-02T11:17:02;14.50;68.10
29663;DHT22;16578;53.266;7.920;2024-03-02T11:19:29;14.50;67.90
29663;DHT22;16578;53.266;7.920;2024-03-02T11:21:56;14.50;67.90
29663;DHT22;16578;53.266;7.920;2024-03-02T11:26:51;14.50;67.70
29663;DHT22;16578;53.266;7.920;2024-03-02T11:32:02;14.60;67.00
29663;DHT22;16578;53.266;7.920;2024-03-02T11:34:32;14.60;67.30
29663;DHT22;16578;53.266;7.920;2024-03-02T11:36:58;14.60;67.10
29663;DHT22;16578;53.266;7.920;2024-03-02T11:39:25;14.70;67.20
29663;DHT22;16578;53.266;7.920;2024-03-02T11:41:51;14.70;67.00
29663;DHT22;16578;53.266;7.920;2024-03-02T11:44:17;14.70;66.90
29663;DHT22;16578;53.266;7.920;2024-03-02T11:46:45;14.70;67.80
29663;DHT22;16578;53.266;7.920;2024-03-02T11:49:14;14.80;66.80
29663;DHT22;16578;53.266;7.920;2024-03-02T11:51:53;14.80;66.80
29663;DHT22;16578;53.266;7.920;2024-03-02T11:54:26;14.90;66.50
29663;DHT22;16578;53.266;7.920;2024-03-02T11:56:54;14.80;66.70
29663;DHT22;16578;53.266;7.920;2024-03-02T11:59:20;14.90;66.60
29663;DHT22;16578;53.266;7.920;2024-03-02T12:01:47;14.90;66.40
29663;DHT22;16578;53.266;7.920;2024-03-02T12:04:13;14.90;66.40
29663;DHT22;16578;53.266;7.920;2024-03-02T12:06:39;14.90;66.20
29663;DHT22;16578;53.266;7.920;2024-03-02T12:09:05;14.90;66.10
29663;DHT22;16578;53.266;7.920;2024-03-02T12:11:30;14.90;65.90
29663;DHT22;16578;53.266;7.920;2024-03-02T12:13:56;14.90;65.80
29663;DHT22;16578;53.266;7.920;2024-03-02T12:16:26;14.90;65.70
29663;DHT22;16578;53.266;7.920;2024-03-02T12:18:52;14.90;65.50
29663;DHT22;16578;53.266;7.920;2024-03-02T12:21:17;14.90;65.50
29663;DHT22;16578;53.266;7.920;2024-03-02T12:23:43;14.90;65.40
29663;DHT22;16578;53.266;7.920;2024-03-02T12:26:09;14.90;65.30
29663;DHT22;16578;53.266;7.920;2024-03-02T12:28:35;15.00;65.00
29663;DHT22;16578;53.266;7.920;2024-03-02T12:31:00;14.90;65.00
29663;DHT22;16578;53.266;7.920;2024-03-02T12:33:26;14.90;64.90
29663;DHT22;16578;53.266;7.920;2024-03-02T12:35:52;14.90;64.80
29663;DHT22;16578;53.266;7.920;2024-03-02T12:38:18;15.00;65.00
29663;DHT22;16578;53.266;7.920;2024-03-02T12:40:47;15.00;64.90
29663;DHT22;16578;53.266;7.920;2024-03-02T12:43:12;15.00;64.90
29663;DHT22;16578;53.266;7.920;2024-03-02T12:45:38;15.00;64.70
29663;DHT22;16578;53.266;7.920;2024-03-02T12:48:04;15.00;64.60
29663;DHT22;16578;53.266;7.920;2024-03-02T12:50:30;15.00;64.30
29663;DHT22;16578;53.266;7.920;2024-03-02T12:52:56;15.10;64.20
29663;DHT22;16578;53.266;7.920;2024-03-02T12:55:22;15.10;64.30
29663;DHT22;16578;53.266;7.920;2024-03-02T12:57:50;15.10;64.30
29663;DHT22;16578;53.266;7.920;2024-03-02T13:00:18;15.10;64.20
29663;DHT22;16578;53.266;7.920;2024-03-02T13:02:45;15.10;64.10
29663;DHT22;16578;53.266;7.920;2024-03-02T13:05:11;15.10;64.50
29663;DHT22;16578;53.266;7.920;2024-03-02T13:07:37;15.10;64.40
29663;DHT22;16578;53.266;7.920;2024-03-02T13:10:04;15.20;64.20
29663;DHT22;16578;53.266;7.920;2024-03-02T13:12:30;15.20;64.20
29663;DHT22;16578;53.266;7.920;2024-03-02T13:14:58;15.20;64.20
29663;DHT22;16578;53.266;7.920;2024-03-02T13:17:24;15.20;64.20
29663;DHT22;16578;53.266;7.920;2024-03-02T13:22:19;15.30;63.90
29663;DHT22;16578;53.266;7.920;2024-03-02T13:24:45;15.20;64.00
29663;DHT22;16578;53.266;7.920;2024-03-02T13:27:10;15.30;64.00
29663;DHT22;16578;53.266;7.920;2024-03-02T13:29:36;15.30;63.80
29663;DHT22;16578;53.266;7.920;2024-03-02T13:32:02;15.30;63.60
29663;DHT22;16578;53.266;7.920;2024-03-02T13:34:28;15.40;63.50
29663;DHT22;16578;53.266;7.920;2024-03-02T13:36:54;15.40;63.40
29663;DHT22;16578;53.266;7.920;2024-03-02T13:39:19;15.40;63.40
29663;DHT22;16578;53.266;7.920;2024-03-02T13:41:45;15.40;63.50
29663;DHT22;16578;53.266;7.920;2024-03-02T13:44:18;15.50;63.40
29663;DHT22;16578;53.266;7.920;2024-03-02T13:46:44;15.50;63.20
29663;DHT22;16578;53.266;7.920;2024-03-02T13:49:11;15.50;63.10
29663;DHT22;16578;53.266;7.920;2024-03-02T13:51:37;15.50;63.00
29663;DHT22;16578;53.266;7.920;2024-03-02T13:54:03;15.60;62.90
29663;DHT22;16578;53.266;7.920;2024-03-02T13:56:29;15.60;62.80
29663;DHT22;16578;53.266;7.920;2024-03-02T13:58:55;15.60;62.50
29663;DHT22;16578;53.266;7.920;2024-03-02T14:01:20;15.60;62.50
29663;DHT22;16578;53.266;7.920;2024-03-02T14:03:46;15.60;62.50
29663;DHT22;16578;53.266;7.920;2024-03-02T14:06:12;15.70;62.40
29663;DHT22;16578;53.266;7.920;2024-03-02T14:08:38;15.70;62.30
29663;DHT22;16578;53.266;7.920;2024-03-02T14:11:03;15.70;62.10
29663;DHT22;16578;53.266;7.920;2024-03-02T14:13:29;15.80;62.10
29663;DHT22;16578;53.266;7.920;2024-03-02T14:15:55;15.80;62.00
29663;DHT22;16578;53.266;7.920;2024-03-02T14:18:21;15.80;61.90
29663;DHT22;16578;53.266;7.920;2024-03-02T14:20:47;15.80;61.90
29663;DHT22;16578;53.266;7.920;2024-03-02T14:23:18;15.90;61.90
29663;DHT22;16578;53.266;7.920;2024-03-02T14:25:44;15.90;61.80
29663;DHT22;16578;53.266;7.920;2024-03-02T14:28:10;15.90;61.80
29663;DHT22;16578;53.266;7.920;2024-03-02T14:30:37;15.90;61.80
29663;DHT22;16578;53.266;7.920;2024-03-02T14:33:03;15.90;61.60
29663;DHT22;16578;53.266;7.920;2024-03-02T14:35:29;15.90;61.60
29663;DHT22;16578;53.266;7.920;2024-03-02T14:37:55;15.90;61.60
29663;DHT22;16578;53.266;7.920;2024-03-02T14:40:23;15.90;61.50
29663;DHT22;16578;53.266;7.920;2024-03-02T14:42:50;16.00;61.50
29663;DHT22;16578;53.266;7.920;2024-03-02T14:45:16;16.00;61.60
29663;DHT22;16578;53.266;7.920;2024-03-02T14:47:42;16.00;61.60
29663;DHT22;16578;53.266;7.920;2024-03-02T14:50:08;16.00;61.40
29663;DHT22;16578;53.266;7.920;2024-03-02T14:52:35;16.00;61.40
29663;DHT22;16578;53.266;7.920;2024-03-02T14:55:01;16.00;61.30
29663;DHT22;16578;53.266;7.920;2024-03-02T14:57:28;16.00;61.10
29663;DHT22;16578;53.266;7.920;2024-03-02T14:59:53;16.00;61.10
29663;DHT22;16578;53.266;7.920;2024-03-02T15:02:20;16.00;61.10
29663;DHT22;16578;53.266;7.920;2024-03-02T15:04:46;16.00;61.20
29663;DHT22;16578;53.266;7.920;2024-03-02T15:07:13;16.00;61.20
29663;DHT22;16578;53.266;7.920;2024-03-02T15:09:39;16.00;61.30
29663;DHT22;16578;53.266;7.920;2024-03-02T15:12:05;16.00;61.30
29663;DHT22;16578;53.266;7.920;2024-03-02T15:14:31;16.00;61.30
29663;DHT22;16578;53.266;7.920;2024-03-02T15:16:57;16.00;61.20
29663;DHT22;16578;53.266;7.920;2024-03-02T15:19:23;16.00;61.00
29663;DHT22;16578;53.266;7.920;2024-03-02T15:21:49;16.10;61.20
29663;DHT22;16578;53.266;7.920;2024-03-02T15:24:14;16.10;61.30
29663;DHT22;16578;53.266;7.920;2024-03-02T15:26:40;16.00;61.30
29663;DHT22;16578;53.266;7.920;2024-03-02T15:29:05;16.00;61.30
29663;DHT22;16578;53.266;7.920;2024-03-02T15:31:31;16.00;61.30
29663;DHT22;16578;53.266;7.920;2024-03-02T15:33:57;16.10;61.40
29663;DHT22;16578;53.266;7.920;2024-03-02T15:36:23;16.10;61.50
29663;DHT22;16578;53.266;7.920;2024-03-02T15:38:49;16.10;61.60